Time;durP1;ratioP1;P1;durP2;ratioP2;P2;SDS_P1;SDS_P2;PMS_P1;PMS_P2;Temp;Humidity;BMP_temperature;BMP_pressure;BME280_temperature;BME280_humidity;BME280_pressure;Samples;Min_cycle;Max_cycle;Signal;HPM_P1;HPM_P2
2021/08/02 00:00:09;;;;;;;5.18;4.72;;;18.70;59.80;;;;;;5067410;28;20036;-82
2021/08/02 00:02:46;;;;;;;4.68;4.15;;;18.60;59.60;;;;;;5069135;28;20044;-84
2021/08/02 00:05:12;;;;;;;;;;;18.60;59.80;;;;;;5068873;28;20115;-81
2021/08/02 00:07:40;;;;;;;5.60;4.50;;;18.50;59.40;;;;;;5067364;28;20011;-84
2021/08/02 00:10:12;;;;;;;5.15;4.30;;;18.50;59.50;;;;;;5069019;28;20113;-80
2021/08/02 00:13:02;;;;;;;4.95;4.47;;;18.40;59.50;;;;;;5069287;28;20417;-81
2021/08/02 00:15:29;;;;;;;4.63;4.22;;;18.40;59.70;;;;;;5068103;28;20024;-79
2021/08/02 00:17:55;;;;;;;4.43;3.88;;;18.40;59.70;;;;;;5067379;28;20031;-79
2021/08/02 00:20:29;;;;;;;4.82;4.20;;;18.30;59.60;;;;;;5067065;28;20074;-80
2021/08/02 00:22:56;;;;;;;;;;;18.30;59.70;;;;;;5068684;28;20407;-84
2021/08/02 00:25:22;;;;;;;4.60;4.20;;;18.30;59.60;;;;;;5068818;28;20383;-84
2021/08/02 00:27:50;;;;;;;5.35;4.28;;;18.30;59.60;;;;;;5066500;28;20028;-80
2021/08/02 00:30:16;;;;;;;5.88;3.78;;;18.20;59.60;;;;;;5067622;28;20428;-78
2021/08/02 00:32:42;;;;;;;5.00;4.50;;;18.20;59.70;;;;;;5067080;28;20078;-80
2021/08/02 00:35:09;;;;;;;4.30;3.90;;;18.10;59.60;;;;;;5067540;28;20032;-83
2021/08/02 00:37:56;;;;;;;4.85;3.95;;;18.10;59.70;;;;;;5066928;28;20503;-78
2021/08/02 00:40:59;;;;;;;7.22;4.32;;;18.10;59.80;;;;;;5068225;28;20040;-84
2021/08/02 00:43:54;;;;;;;4.47;3.83;;;18.00;59.70;;;;;;5066172;28;20044;-84
2021/08/02 00:46:26;;;;;;;4.95;4.43;;;18.00;59.80;;;;;;5067503;28;20036;-83
2021/08/02 00:49:05;;;;;;;4.80;3.88;;;18.00;59.90;;;;;;5067534;28;20396;-82
2021/08/02 00:51:44;;;;;;;5.13;4.47;;;17.90;59.80;;;;;;5067910;28;20028;-81
2021/08/02 00:54:14;;;;;;;4.20;3.50;;;17.90;60.00;;;;;;5066587;28;20381;-81
2021/08/02 00:56:42;;;;;;;4.85;4.35;;;17.80;59.80;;;;;;5066390;28;20036;-85
2021/08/02 00:59:08;;;;;;;4.97;4.47;;;17.80;59.90;;;;;;5066298;28;20083;-79
2021/08/02 01:01:36;;;;;;;6.18;4.38;;;17.80;60.00;;;;;;5065701;28;20036;-81
2021/08/02 01:04:04;;;;;;;5.07;4.53;;;17.70;59.90;;;;;;5065885;28;20040;-81
2021/08/02 01:06:32;;;;;;;4.65;4.22;;;17.70;60.00;;;;;;5067084;28;20025;-82
2021/08/02 01:09:04;;;;;;;5.25;3.97;;;17.70;60.00;;;;;;5065940;28;20567;-83
2021/08/02 01:11:34;;;;;;;5.90;4.15;;;17.60;60.00;;;;;;5068418;28;20032;-82
2021/08/02 01:14:06;;;;;;;5.50;4.05;;;17.60;60.00;;;;;;5066995;28;20031;-85
2021/08/02 01:16:35;;;;;;;5.72;3.78;;;17.60;60.10;;;;;;5083261;28;20029;-82
2021/08/02 01:19:08;;;;;;;4.53;4.13;;;17.60;60.10;;;;;;5067545;28;20299;-82
2021/08/02 01:21:43;;;;;;;6.78;3.85;;;17.50;60.00;;;;;;5065744;28;20652;-81
2021/08/02 01:24:13;;;;;;;4.90;4.40;;;17.50;60.10;;;;;;5067332;28;20074;-82
2021/08/02 01:26:42;;;;;;;6.85;4.28;;;17.40;60.00;;;;;;5066149;28;20412;-79
2021/08/02 01:29:53;;;;;;;4.88;3.78;;;17.40;60.00;;;;;;5050008;28;20028;-81
2021/08/02 01:32:22;;;;;;;4.32;3.90;;;17.40;60.10;;;;;;5056033;28;20430;-80
2021/08/02 01:34:51;;;;;;;4.95;4.30;;;17.30;59.90;;;;;;5055722;28;20033;-81
2021/08/02 01:37:17;;;;;;;5.88;4.32;;;17.30;60.00;;;;;;5049645;28;20083;-80
2021/08/02 01:39:52;;;;;;;4.40;4.00;;;17.30;60.10;;;;;;5083119;28;20036;-79
2021/08/02 01:42:18;;;;;;;4.85;4.05;;;17.30;60.30;;;;;;5068165;28;20068;-81
2021/08/02 01:44:44;;;;;;;6.30;3.97;;;17.30;60.30;;;;;;5050927;28;20061;-79
2021/08/02 01:47:20;;;;;;;6.00;4.13;;;17.20;60.10;;;;;;5053863;28;20104;-80
2021/08/02 01:50:00;;;;;;;4.47;4.07;;;17.10;60.00;;;;;;5057821;28;20053;-81
2021/08/02 01:52:35;;;;;;;5.25;3.58;;;17.20;60.40;;;;;;5057285;28;20476;-79
2021/08/02 01:55:09;;;;;;;4.80;4.30;;;17.10;60.30;;;;;;5074434;28;20025;-81
2021/08/02 01:57:59;;;;;;;5.07;4.30;;;17.10;60.30;;;;;;5074078;28;20040;-78
2021/08/02 02:00:47;;;;;;;5.40;4.07;;;17.10;60.40;;;;;;5073506;28;20549;-78
2021/08/02 02:03:17;;;;;;;8.60;4.55;;;17.00;60.10;;;;;;5073794;28;20045;-78
2021/08/02 02:06:00;;;;;;;4.28;3.85;;;17.00;60.20;;;;;;5073687;28;20039;-78
2021/08/02 02:08:35;;;;;;;4.50;4.10;;;17.00;60.30;;;;;;5073453;28;20049;-78
2021/08/02 02:11:09;;;;;;;6.13;4.97;;;17.00;60.30;;;;;;5073338;28;20557;-77
2021/08/02 02:13:49;;;;;;;4.45;3.97;;;17.00;60.30;;;;;;5090433;28;20086;-78
2021/08/02 02:16:18;;;;;;;4.60;4.20;;;17.00;60.40;;;;;;5090369;28;20483;-78
2021/08/02 02:18:49;;;;;;;4.78;4.28;;;16.90;60.30;;;;;;5074593;28;20036;-78
2021/08/02 02:21:18;;;;;;;6.25;4.70;;;16.90;60.30;;;;;;5074785;28;20062;-78
2021/08/02 02:23:47;;;;;;;6.70;4.57;;;16.90;60.40;;;;;;5057817;28;20060;-79
2021/08/02 02:26:17;;;;;;;5.70;4.10;;;16.80;60.30;;;;;;5089845;28;20028;-79
2021/08/02 02:28:45;;;;;;;5.57;4.70;;;16.80;60.30;;;;;;5072954;28;20032;-79
2021/08/02 02:31:13;;;;;;;6.97;4.03;;;16.80;60.40;;;;;;5073099;28;20024;-77
2021/08/02 02:33:44;;;;;;;6.15;4.55;;;16.80;60.50;;;;;;5090061;28;20460;-77
2021/08/02 02:36:12;;;;;;;6.18;4.47;;;16.80;60.50;;;;;;5072736;28;20031;-77
2021/08/02 02:38:39;;;;;;;4.60;4.25;;;16.70;60.40;;;;;;5072237;28;20025;-77
2021/08/02 02:41:06;;;;;;;5.15;4.65;;;16.70;60.50;;;;;;5072841;28;20063;-77
2021/08/02 02:43:37;;;;;;;6.15;4.38;;;16.70;60.50;;;;;;5072779;28;20036;-78
2021/08/02 02:46:04;;;;;;;5.78;4.85;;;16.70;60.60;;;;;;5074055;28;20021;-78
2021/08/02 02:48:32;;;;;;;6.53;4.50;;;16.70;60.60;;;;;;5073853;28;20028;-78
2021/08/02 02:50:59;;;;;;;6.93;5.32;;;16.70;60.70;;;;;;5072811;28;20024;-80
2021/08/02 02:53:27;;;;;;;5.05;4.57;;;16.60;60.60;;;;;;5089393;28;20028;-77
2021/08/02 02:55:54;;;;;;;7.13;4.65;;;16.60;60.60;;;;;;5074042;28;20028;-79
2021/08/02 02:58:22;;;;;;;5.10;4.28;;;16.50;60.50;;;;;;5073738;28;20029;-78
2021/08/02 03:00:48;;;;;;;5.38;4.97;;;16.50;60.60;;;;;;5072686;28;20120;-77
2021/08/02 03:03:21;;;;;;;6.90;5.25;;;16.50;60.70;;;;;;5088835;28;20060;-77
2021/08/02 03:05:51;;;;;;;5.72;5.22;;;16.50;60.70;;;;;;5072510;28;20063;-78
2021/08/02 03:08:22;;;;;;;5.15;4.70;;;16.40;60.60;;;;;;5072964;28;20044;-78
2021/08/02 03:10:52;;;;;;;7.60;5.18;;;16.40;60.70;;;;;;5072395;28;20029;-78
2021/08/02 03:13:18;;;;;;;6.18;4.68;;;16.40;60.80;;;;;;5072403;28;20031;-78
2021/08/02 03:15:44;;;;;;;5.80;5.20;;;16.40;60.80;;;;;;5073171;28;20033;-78
2021/08/02 03:18:13;;;;;;;6.10;5.07;;;16.40;60.80;;;;;;5073351;28;20060;-79
2021/08/02 03:20:41;;;;;;;5.60;5.10;;;16.40;60.90;;;;;;5073395;28;20032;-78
2021/08/02 03:23:20;;;;;;;5.95;5.35;;;16.40;60.90;;;;;;5073652;28;20032;-78
2021/08/02 03:25:54;;;;;;;6.15;5.55;;;16.40;61.10;;;;;;5073150;28;20032;-78
2021/08/02 03:28:36;;;;;;;6.10;5.50;;;16.30;60.90;;;;;;5073273;28;20060;-78
2021/08/02 03:31:04;;;;;;;5.50;4.88;;;16.30;60.90;;;;;;5073200;28;20020;-77
2021/08/02 03:33:36;;;;;;;5.93;5.32;;;16.30;60.90;;;;;;5071925;28;20060;-77
2021/08/02 03:36:09;;;;;;;6.35;5.22;;;16.40;61.20;;;;;;5073205;28;20032;-78
2021/08/02 03:38:36;;;;;;;5.53;5.03;;;16.30;61.00;;;;;;5071368;28;20028;-78
2021/08/02 03:41:07;;;;;;;6.05;5.45;;;16.30;60.90;;;;;;5073259;28;20472;-79
2021/08/02 03:43:37;;;;;;;5.78;5.28;;;16.30;61.00;;;;;;5071648;28;20392;-78
2021/08/02 03:46:08;;;;;;;5.18;4.78;;;16.30;61.10;;;;;;5088814;28;20028;-79
2021/08/02 03:48:36;;;;;;;6.85;5.20;;;16.30;61.10;;;;;;5073122;28;20086;-81
2021/08/02 03:51:03;;;;;;;5.20;4.65;;;16.30;61.10;;;;;;5072618;28;20044;-79
2021/08/02 03:53:43;;;;;;;6.63;5.38;;;16.20;61.00;;;;;;5071401;28;20029;-78
2021/08/02 03:56:12;;;;;;;5.90;5.30;;;16.20;61.10;;;;;;5072639;28;20063;-79
2021/08/02 03:58:38;;;;;;;4.93;4.47;;;16.20;61.00;;;;;;5071489;28;20054;-79
2021/08/02 04:01:04;;;;;;;6.25;5.28;;;16.20;61.00;;;;;;5072724;28;20430;-78
2021/08/02 04:03:30;;;;;;;7.25;5.45;;;16.20;61.10;;;;;;5054431;28;20494;-78
2021/08/02 04:05:59;;;;;;;5.57;4.80;;;16.10;61.00;;;;;;5071574;28;20032;-77
2021/08/02 04:08:28;;;;;;;7.13;5.05;;;16.20;61.20;;;;;;5071793;28;20110;-79
2021/08/02 04:10:54;;;;;;;6.18;5.35;;;16.10;61.10;;;;;;5072527;28;20036;-78
2021/08/02 04:13:21;;;;;;;6.18;5.30;;;16.10;61.10;;;;;;5072507;28;20498;-77
2021/08/02 04:15:47;;;;;;;5.93;5.28;;;16.00;61.00;;;;;;5071591;28;20083;-77
2021/08/02 04:18:13;;;;;;;6.57;5.55;;;16.00;61.10;;;;;;5072339;28;20024;-77
2021/08/02 04:20:41;;;;;;;8.75;5.07;;;16.00;61.10;;;;;;5072568;28;20422;-80
2021/08/02 04:23:07;;;;;;;6.25;5.65;;;16.00;61.10;;;;;;5071718;28;20040;-78
2021/08/02 04:25:33;;;;;;;5.43;4.88;;;15.90;61.00;;;;;;5070942;28;20075;-77
2021/08/02 04:27:59;;;;;;;7.90;5.25;;;15.90;61.10;;;;;;5072081;28;20060;-77
2021/08/02 04:30:25;;;;;;;6.00;5.38;;;15.90;61.10;;;;;;5072132;28;20025;-79
2021/08/02 04:32:51;;;;;;;6.32;5.65;;;15.90;61.10;;;;;;5072101;28;20040;-78
2021/08/02 04:35:18;;;;;;;5.30;4.80;;;15.90;61.20;;;;;;5071824;28;20492;-78
2021/08/02 04:37:44;;;;;;;7.43;5.38;;;15.80;61.10;;;;;;5070525;28;20036;-80
2021/08/02 04:40:10;;;;;;;8.68;5.10;;;15.80;61.10;;;;;;5070900;28;20032;-78
2021/08/02 04:42:38;;;;;;;6.38;5.75;;;15.80;61.20;;;;;;5070478;28;20047;-77
2021/08/02 04:45:06;;;;;;;5.43;4.93;;;15.80;61.30;;;;;;5071530;28;20027;-78
2021/08/02 04:47:32;;;;;;;5.38;4.90;;;15.70;61.10;;;;;;5060359;28;20021;-77
2021/08/02 04:49:58;;;;;;;6.22;4.95;;;15.80;61.30;;;;;;5067887;28;20052;-77
2021/08/02 04:52:24;;;;;;;8.75;5.57;;;15.80;61.30;;;;;;5067564;28;20063;-78
2021/08/02 04:54:50;;;;;;;6.63;5.90;;;15.70;61.20;;;;;;5064341;28;20020;-78
2021/08/02 04:57:16;;;;;;;5.88;5.30;;;15.70;61.20;;;;;;5066991;28;20066;-78
2021/08/02 04:59:42;;;;;;;6.25;5.68;;;15.70;61.30;;;;;;5067552;28;20059;-77
2021/08/02 05:02:09;;;;;;;5.93;5.32;;;15.60;61.20;;;;;;5065420;28;20431;-77
2021/08/02 05:04:36;;;;;;;7.40;6.05;;;15.60;61.20;;;;;;5060648;28;20103;-77
2021/08/02 05:07:02;;;;;;;6.20;5.60;;;15.60;61.20;;;;;;5055190;28;20284;-79
2021/08/02 05:09:28;;;;;;;7.15;5.78;;;15.60;61.20;;;;;;5064749;28;20040;-77
2021/08/02 05:11:54;;;;;;;6.65;5.60;;;15.60;61.80;;;;;;5066860;28;20036;-80
2021/08/02 05:14:20;;;;;;;6.88;5.95;;;15.60;61.30;;;;;;5065777;28;20128;-79
2021/08/02 05:16:46;;;;;;;7.32;6.00;;;15.60;61.30;;;;;;5067074;28;20520;-77
2021/08/02 05:19:12;;;;;;;6.70;6.10;;;15.60;61.40;;;;;;5066983;28;20159;-77
2021/08/02 05:21:39;;;;;;;6.18;5.55;;;15.60;61.40;;;;;;5067198;28;20115;-77
2021/08/02 05:24:05;;;;;;;6.35;5.75;;;15.60;61.40;;;;;;5067126;28;20036;-81
2021/08/02 05:26:32;;;;;;;6.32;5.72;;;15.70;61.60;;;;;;5067366;28;20027;-80
2021/08/02 05:28:58;;;;;;;6.70;5.85;;;15.70;61.60;;;;;;5065654;28;20029;-86
2021/08/02 05:31:24;;;;;;;9.00;6.50;;;15.70;61.60;;;;;;5067544;28;20028;-79
2021/08/02 05:33:50;;;;;;;8.02;7.13;;;15.70;61.70;;;;;;5066643;28;20031;-81
2021/08/02 05:36:19;;;;;;;8.13;7.32;;;15.70;61.70;;;;;;5063024;28;20033;-81
2021/08/02 05:38:45;;;;;;;7.43;6.72;;;15.70;61.70;;;;;;5063186;28;20442;-83
2021/08/02 05:41:11;;;;;;;7.20;6.50;;;15.80;61.90;;;;;;5067107;28;20028;-81
2021/08/02 05:43:37;;;;;;;7.43;6.80;;;15.80;62.00;;;;;;5066800;28;20040;-81
2021/08/02 05:46:04;;;;;;;10.05;6.90;;;15.90;62.20;;;;;;5065625;28;20117;-81
2021/08/02 05:48:30;;;;;;;9.05;7.22;;;15.90;62.20;;;;;;5067623;28;20369;-84
2021/08/02 05:50:56;;;;;;;10.27;8.13;;;15.90;62.20;;;;;;5067408;28;20031;-84
2021/08/02 05:53:22;;;;;;;11.07;8.68;;;16.00;62.40;;;;;;5065712;28;20119;-76
2021/08/02 05:55:48;;;;;;;8.93;8.07;;;16.00;62.40;;;;;;5064952;28;20119;-81
2021/08/02 05:58:14;;;;;;;12.13;8.95;;;16.10;63.00;;;;;;5065475;28;20111;-82
2021/08/02 06:00:40;;;;;;;12.40;9.82;;;16.10;63.50;;;;;;5065412;28;20262;-81
2021/08/02 06:03:06;;;;;;;11.52;10.13;;;16.20;63.90;;;;;;5067781;28;20037;-84
2021/08/02 06:05:32;;;;;;;12.13;10.85;;;16.20;64.00;;;;;;5063795;28;20028;-83
2021/08/02 06:07:58;;;;;;;12.32;11.13;;;16.20;64.10;;;;;;5054359;28;20028;-81
2021/08/02 06:10:24;;;;;;;12.73;11.52;;;16.30;64.40;;;;;;5057410;28;20395;-84
2021/08/02 06:12:50;;;;;;;17.35;12.98;;;16.30;64.40;;;;;;5052079;28;20539;-75
2021/08/02 06:15:16;;;;;;;13.38;11.43;;;16.30;64.50;;;;;;5058079;28;20496;-82
2021/08/02 06:17:43;;;;;;;13.82;12.40;;;16.30;64.70;;;;;;5057473;28;20032;-82
2021/08/02 06:20:10;;;;;;;13.23;11.93;;;16.30;65.00;;;;;;5061886;28;20529;-81
2021/08/02 06:22:36;;;;;;;14.07;12.60;;;16.40;65.40;;;;;;5064936;28;20047;-80
2021/08/02 06:25:03;;;;;;;16.75;14.02;;;16.40;65.50;;;;;;5066188;28;20024;-80
2021/08/02 06:27:32;;;;;;;13.68;12.27;;;16.40;65.60;;;;;;5066894;28;20539;-81
2021/08/02 06:29:59;;;;;;;13.73;12.32;;;16.40;65.70;;;;;;5056979;28;20025;-82
2021/08/02 06:32:26;;;;;;;13.85;12.43;;;16.50;65.90;;;;;;5050461;28;20033;-78
2021/08/02 06:34:52;;;;;;;14.82;13.00;;;16.50;66.10;;;;;;5051071;28;20017;-79
2021/08/02 06:37:18;;;;;;;14.73;13.25;;;16.50;66.30;;;;;;5061900;28;20036;-80
2021/08/02 06:39:44;;;;;;;15.88;14.38;;;16.60;66.70;;;;;;5064383;28;20037;-79
2021/08/02 06:42:13;;;;;;;14.48;13.05;;;16.70;67.00;;;;;;5067823;28;20043;-83
2021/08/02 06:44:41;;;;;;;14.93;13.32;;;16.70;67.10;;;;;;5068375;28;20040;-82
2021/08/02 06:47:07;;;;;;;16.90;14.70;;;16.80;67.40;;;;;;5064934;28;20473;-80
2021/08/02 06:49:33;;;;;;;18.95;15.25;;;16.80;67.40;;;;;;5065945;28;20059;-80
2021/08/02 06:51:59;;;;;;;16.65;14.90;;;16.80;67.50;;;;;;5066953;28;20028;-78
2021/08/02 06:54:25;;;;;;;16.65;14.90;;;16.80;67.50;;;;;;5069265;28;20043;-79
2021/08/02 06:56:51;;;;;;;18.25;16.02;;;16.90;67.80;;;;;;5071557;28;20496;-78
2021/08/02 06:59:17;;;;;;;17.17;15.45;;;16.90;67.90;;;;;;5066308;28;20036;-79
2021/08/02 07:01:43;;;;;;;18.35;16.45;;;16.90;67.90;;;;;;5066863;28;20119;-79
2021/08/02 07:04:09;;;;;;;18.67;15.43;;;17.00;68.10;;;;;;5068541;28;20306;-78
2021/08/02 07:06:36;;;;;;;17.20;15.40;;;17.00;68.10;;;;;;5066387;28;20486;-78
2021/08/02 07:09:02;;;;;;;19.17;15.93;;;17.10;68.30;;;;;;5068461;28;20056;-79
2021/08/02 07:11:28;;;;;;;16.60;14.80;;;17.20;68.50;;;;;;5068609;28;20451;-79
2021/08/02 07:13:54;;;;;;;17.25;14.90;;;17.20;68.50;;;;;;5069217;28;20361;-79
2021/08/02 07:16:21;;;;;;;17.05;14.80;;;17.30;68.60;;;;;;5067438;28;20069;-78
2021/08/02 07:18:48;;;;;;;17.05;15.23;;;17.40;68.80;;;;;;5084355;28;20067;-80
2021/08/02 07:21:14;;;;;;;17.73;15.45;;;17.50;68.80;;;;;;5068640;28;20028;-79
2021/08/02 07:23:40;;;;;;;18.17;15.43;;;17.50;68.80;;;;;;5069089;28;20029;-80
2021/08/02 07:26:07;;;;;;;17.42;15.65;;;17.60;68.90;;;;;;5069409;28;20037;-80
2021/08/02 07:28:33;;;;;;;21.17;16.95;;;17.70;69.00;;;;;;5068295;28;20557;-79
2021/08/02 07:31:00;;;;;;;19.73;16.70;;;17.70;68.90;;;;;;5067645;28;20361;-80
2021/08/02 07:33:26;;;;;;;22.95;17.95;;;17.70;68.90;;;;;;5069043;28;20093;-79
2021/08/02 07:35:52;;;;;;;22.98;16.67;;;17.70;68.80;;;;;;5068829;28;20427;-79
2021/08/02 07:38:18;;;;;;;22.42;17.83;;;17.80;69.00;;;;;;5068141;28;20305;-79
2021/08/02 07:40:44;;;;;;;27.15;15.88;;;17.80;69.00;;;;;;5068258;28;20039;-79
2021/08/02 07:43:10;;;;;;;22.80;18.65;;;17.80;69.00;;;;;;5067114;28;20048;-80
2021/08/02 07:45:35;;;;;;;21.98;17.80;;;17.80;69.00;;;;;;5068933;28;20024;-80
2021/08/02 07:48:02;;;;;;;19.80;16.00;;;17.80;69.00;;;;;;5067054;28;20167;-81
2021/08/02 07:50:28;;;;;;;22.13;18.08;;;17.90;69.20;;;;;;5067119;28;20055;-79
2021/08/02 07:52:54;;;;;;;23.45;16.83;;;17.90;69.20;;;;;;5067414;28;20035;-79
2021/08/02 07:55:20;;;;;;;19.25;15.88;;;17.90;69.20;;;;;;5066843;28;20509;-78
2021/08/02 07:57:46;;;;;;;23.90;15.32;;;17.90;69.10;;;;;;5068467;28;20024;-79
2021/08/02 08:00:16;;;;;;;17.55;15.40;;;18.00;69.20;;;;;;5068332;28;20405;-78
2021/08/02 08:02:44;;;;;;;21.08;15.77;;;18.00;69.20;;;;;;5068275;28;20036;-78
2021/08/02 08:05:11;;;;;;;23.02;16.80;;;18.00;69.20;;;;;;5067722;28;20020;-76
2021/08/02 08:08:03;;;;;;;20.40;15.45;;;18.00;69.20;;;;;;5066073;28;20484;-79
2021/08/02 08:10:30;;;;;;;21.13;16.20;;;18.10;69.50;;;;;;5064944;28;20043;-78
2021/08/02 08:12:56;;;;;;;19.60;15.82;;;18.10;69.30;;;;;;5067786;28;20060;-79
2021/08/02 08:15:24;;;;;;;16.92;14.77;;;18.10;69.20;;;;;;5066637;28;20064;-78
2021/08/02 08:17:51;;;;;;;17.83;14.95;;;18.20;69.40;;;;;;5067497;28;20036;-78
2021/08/02 08:20:20;;;;;;;22.40;14.90;;;18.20;69.20;;;;;;5049567;28;20039;-78
2021/08/02 08:22:46;;;;;;;17.05;15.27;;;18.20;69.20;;;;;;5066488;28;20051;-78
2021/08/02 08:25:13;;;;;;;18.08;14.90;;;18.20;69.10;;;;;;5067969;28;20098;-79
2021/08/02 08:27:39;;;;;;;15.52;13.35;;;18.20;69.00;;;;;;5066458;28;20377;-78
2021/08/02 08:30:06;;;;;;;16.13;14.40;;;18.30;69.10;;;;;;5067419;28;20476;-78
2021/08/02 08:32:32;;;;;;;17.20;14.60;;;18.30;69.10;;;;;;5067469;28;20119;-78
2021/08/02 08:34:58;;;;;;;18.27;14.13;;;18.30;69.00;;;;;;5066223;28;20067;-78
2021/08/02 08:37:24;;;;;;;18.38;13.93;;;18.30;69.00;;;;;;5066349;28;20028;-82
2021/08/02 08:39:50;;;;;;;17.48;15.65;;;18.30;69.00;;;;;;5068964;28;20032;-83
2021/08/02 08:42:18;;;;;;;18.98;14.73;;;18.30;69.00;;;;;;5062322;28;20035;-84
2021/08/02 08:44:44;;;;;;;18.33;15.65;;;18.30;68.90;;;;;;5061382;28;20025;-82
2021/08/02 08:47:11;;;;;;;16.10;14.48;;;18.40;69.50;;;;;;5067493;28;20064;-83
2021/08/02 08:49:38;;;;;;;16.15;14.52;;;18.40;69.00;;;;;;5067195;28;20028;-83
2021/08/02 08:52:05;;;;;;;15.63;13.75;;;18.40;68.90;;;;;;5067843;28;20097;-82
2021/08/02 08:54:32;;;;;;;19.17;14.88;;;18.40;68.80;;;;;;5067422;28;20060;-82
2021/08/02 08:56:58;;;;;;;15.77;13.98;;;18.40;68.80;;;;;;5067401;28;20377;-83
2021/08/02 08:59:25;;;;;;;14.95;13.43;;;18.40;68.70;;;;;;5067025;28;20025;-81
2021/08/02 09:02:08;;;;;;;15.55;12.70;;;18.40;68.70;;;;;;5066962;28;20427;-81
2021/08/02 09:04:34;;;;;;;;;;;18.40;68.70;;;;;;5067852;28;20036;-82
2021/08/02 09:07:04;;;;;;;14.90;13.30;;;18.40;68.50;;;;;;5066124;28;20271;-82
2021/08/02 09:09:32;;;;;;;14.43;12.75;;;18.50;69.10;;;;;;5066790;28;20056;-82
2021/08/02 09:12:18;;;;;;;16.17;13.88;;;18.50;68.50;;;;;;5065612;28;20028;-81
2021/08/02 09:14:54;;;;;;;17.83;13.80;;;18.50;68.60;;;;;;5065405;28;20199;-82
2021/08/02 09:17:33;;;;;;;15.23;13.30;;;18.50;68.50;;;;;;5067383;28;20070;-80
2021/08/02 09:20:01;;;;;;;14.70;13.20;;;18.50;68.40;;;;;;5067705;28;20036;-81
2021/08/02 09:22:36;;;;;;;15.50;13.90;;;18.60;68.50;;;;;;5067336;28;20834;-85
2021/08/02 09:25:19;;;;;;;13.52;12.02;;;18.60;68.60;;;;;;5065224;28;20020;-80
2021/08/02 09:27:46;;;;;;;14.55;12.25;;;18.60;68.50;;;;;;5066308;28;20033;-79
2021/08/02 09:30:19;;;;;;;15.85;12.32;;;18.60;68.40;;;;;;5066954;28;20561;-79
2021/08/02 09:33:05;;;;;;;13.43;12.02;;;18.60;68.40;;;;;;5064903;28;20048;-81
2021/08/02 09:35:39;;;;;;;15.40;12.20;;;18.60;68.30;;;;;;5066853;28;20032;-79
2021/08/02 09:38:13;;;;;;;13.50;11.25;;;18.70;68.50;;;;;;5065292;28;20032;-79
2021/08/02 09:40:54;;;;;;;14.00;11.60;;;18.70;68.40;;;;;;5066479;28;20028;-78
2021/08/02 09:43:23;;;;;;;13.93;11.82;;;18.70;68.40;;;;;;5066610;28;20190;-79
2021/08/02 09:45:52;;;;;;;14.18;11.75;;;18.70;68.30;;;;;;5065409;28;20115;-79
2021/08/02 09:48:20;;;;;;;12.98;11.73;;;18.70;68.30;;;;;;5066188;28;20125;-79
2021/08/02 09:50:48;;;;;;;12.50;10.43;;;18.80;68.40;;;;;;5066212;28;20035;-79
2021/08/02 09:53:15;;;;;;;12.73;11.05;;;18.80;68.40;;;;;;5066470;28;20040;-80
2021/08/02 09:55:43;;;;;;;16.80;10.73;;;18.80;68.40;;;;;;5065813;28;20810;-80
2021/08/02 09:58:18;;;;;;;12.98;11.32;;;18.80;68.30;;;;;;5064677;28;20021;-79
2021/08/02 10:00:45;;;;;;;14.32;11.40;;;18.90;68.50;;;;;;5066426;28;20033;-79
2021/08/02 10:03:14;;;;;;;12.43;10.73;;;18.90;68.40;;;;;;5066570;28;20052;-79
2021/08/02 10:05:40;;;;;;;10.80;9.70;;;19.00;68.50;;;;;;5066461;28;20552;-79
2021/08/02 10:08:07;;;;;;;11.60;10.18;;;19.00;68.40;;;;;;5065957;28;20029;-81
2021/08/02 10:10:36;;;;;;;13.48;11.35;;;19.10;68.50;;;;;;5066759;28;20024;-81
2021/08/02 10:13:03;;;;;;;12.35;11.10;;;19.10;68.50;;;;;;5066177;28;20599;-81
2021/08/02 10:15:30;;;;;;;10.93;9.77;;;19.20;68.60;;;;;;5069752;28;20395;-80
2021/08/02 10:17:58;;;;;;;10.88;9.88;;;19.30;68.60;;;;;;5070005;28;20036;-80
2021/08/02 10:20:28;;;;;;;11.48;10.38;;;19.40;68.60;;;;;;5070050;28;20384;-80
2021/08/02 10:22:55;;;;;;;11.52;10.27;;;19.50;68.70;;;;;;5070269;28;20072;-80
2021/08/02 10:25:41;;;;;;;12.77;10.43;;;19.60;69.30;;;;;;5068798;28;20032;-77
2021/08/02 10:28:15;;;;;;;10.93;9.82;;;19.70;68.80;;;;;;5068674;28;20033;-80
2021/08/02 10:30:44;;;;;;;12.18;9.68;;;19.90;69.00;;;;;;5070218;28;20121;-80
2021/08/02 10:33:10;;;;;;;13.27;10.60;;;20.00;69.00;;;;;;5069760;28;20463;-82
2021/08/02 10:35:45;;;;;;;10.48;9.38;;;20.20;69.20;;;;;;5055768;28;20112;-80
2021/08/02 10:38:14;;;;;;;9.98;8.93;;;20.30;69.20;;;;;;5056894;28;20268;-81
2021/08/02 10:40:48;;;;;;;11.27;10.27;;;20.40;69.20;;;;;;5068290;28;20480;-80
2021/08/02 10:43:35;;;;;;;11.88;10.15;;;20.50;69.20;;;;;;5069898;28;20551;-83
2021/08/02 10:46:18;;;;;;;10.43;9.38;;;20.70;69.40;;;;;;5068700;28;20384;-82
2021/08/02 10:48:44;;;;;;;10.60;9.50;;;20.80;69.30;;;;;;5068038;28;20078;-81
2021/08/02 10:51:22;;;;;;;12.00;10.05;;;20.90;69.20;;;;;;5070416;28;20024;-82
2021/08/02 10:53:58;;;;;;;10.65;9.60;;;21.10;69.40;;;;;;5069959;28;20127;-77
2021/08/02 10:56:28;;;;;;;15.10;9.63;;;21.20;69.30;;;;;;5071160;28;20029;-77
2021/08/02 10:58:56;;;;;;;10.75;9.73;;;21.30;68.50;;;;;;5071282;28;20036;-80
2021/08/02 11:01:26;;;;;;;10.30;9.30;;;21.40;68.30;;;;;;5071680;28;20483;-78
2021/08/02 11:03:57;;;;;;;10.43;9.00;;;21.50;68.40;;;;;;5053430;28;20043;-79
2021/08/02 11:06:26;;;;;;;10.80;9.70;;;21.60;68.40;;;;;;5071449;28;20032;-78
2021/08/02 11:08:57;;;;;;;10.00;8.90;;;21.70;68.40;;;;;;5070809;28;20048;-78
2021/08/02 11:11:34;;;;;;;11.93;9.20;;;21.90;68.50;;;;;;5071983;28;20063;-80
2021/08/02 11:14:09;;;;;;;11.32;8.95;;;22.10;68.60;;;;;;5070421;28;20518;-80
2021/08/02 11:16:39;;;;;;;11.65;9.20;;;22.30;68.60;;;;;;5071242;28;20028;-80
2021/08/02 11:19:20;;;;;;;10.18;8.45;;;22.50;68.60;;;;;;5070599;28;20535;-80
2021/08/02 11:21:57;;;;;;;11.40;8.75;;;22.70;68.60;;;;;;5065110;28;20140;-78
2021/08/02 11:24:24;;;;;;;8.25;7.45;;;22.90;68.50;;;;;;5066412;28;20531;-78
2021/08/02 11:26:56;;;;;;;9.80;8.35;;;23.10;68.50;;;;;;5051525;28;20025;-80
2021/08/02 11:29:24;;;;;;;10.30;7.95;;;23.30;68.50;;;;;;5070641;28;20060;-79
2021/08/02 11:32:03;;;;;;;8.50;7.65;;;23.30;68.20;;;;;;5066464;28;20082;-79
2021/08/02 11:34:31;;;;;;;11.25;7.63;;;23.50;68.20;;;;;;5069649;28;20064;-80
2021/08/02 11:37:03;;;;;;;10.93;8.18;;;23.60;68.20;;;;;;5074593;28;20218;-79
2021/08/02 11:39:35;;;;;;;9.65;7.25;;;23.70;68.20;;;;;;5078813;28;20054;-79
2021/08/02 11:42:03;;;;;;;7.68;6.90;;;23.90;68.30;;;;;;5077276;28;20079;-79
2021/08/02 11:44:30;;;;;;;8.63;7.20;;;24.00;68.20;;;;;;5072024;28;20059;-80
2021/08/02 11:46:56;;;;;;;9.23;7.20;;;24.10;68.20;;;;;;5070007;28;20304;-82
2021/08/02 11:49:23;;;;;;;7.50;6.80;;;24.10;68.00;;;;;;5071140;28;20029;-81
2021/08/02 11:51:50;;;;;;;9.95;7.40;;;24.10;67.80;;;;;;5075280;28;20052;-82
2021/08/02 11:54:20;;;;;;;7.25;6.55;;;24.10;67.80;;;;;;5075141;28;20036;-80
2021/08/02 11:56:47;;;;;;;7.90;6.70;;;24.20;67.80;;;;;;5074356;28;20381;-80
2021/08/02 11:59:27;;;;;;;7.75;6.95;;;24.20;67.70;;;;;;5080279;28;20140;-80
2021/08/02 12:01:59;;;;;;;7.15;6.45;;;24.20;67.60;;;;;;5079677;28;20594;-79
2021/08/02 12:04:26;;;;;;;7.25;6.20;;;24.20;67.50;;;;;;5080632;28;20032;-80
2021/08/02 12:06:57;;;;;;;7.47;6.88;;;24.30;67.60;;;;;;5079069;28;20064;-80
2021/08/02 12:09:37;;;;;;;6.35;5.70;;;24.30;67.50;;;;;;5079370;28;20051;-80
2021/08/02 12:12:07;;;;;;;7.15;6.45;;;24.40;67.60;;;;;;5079090;28;20051;-80
2021/08/02 12:14:34;;;;;;;8.73;6.70;;;24.40;67.50;;;;;;5078647;28;20051;-83
2021/08/02 12:17:09;;;;;;;9.32;6.70;;;24.50;67.50;;;;;;5075914;28;20056;-81
2021/08/02 12:19:52;;;;;;;7.18;6.47;;;24.50;67.40;;;;;;5077642;28;20032;-81
2021/08/02 12:22:22;;;;;;;7.07;6.47;;;24.60;67.40;;;;;;5078579;28;20052;-80
2021/08/02 12:24:58;;;;;;;7.18;6.22;;;24.70;67.50;;;;;;5078308;28;20024;-81
2021/08/02 12:27:25;;;;;;;6.82;6.18;;;24.70;67.20;;;;;;5072664;28;20472;-81
2021/08/02 12:29:58;;;;;;;8.77;6.60;;;24.80;67.40;;;;;;5049855;28;20285;-81
2021/08/02 12:32:53;;;;;;;6.53;5.93;;;24.90;67.30;;;;;;5050301;28;20025;-80
2021/08/02 12:35:20;;;;;;;5.63;5.13;;;25.10;67.40;;;;;;5060567;28;20140;-80
2021/08/02 12:37:46;;;;;;;6.35;5.28;;;25.20;67.20;;;;;;5066905;28;20143;-81
2021/08/02 12:40:15;;;;;;;6.25;5.47;;;25.20;66.90;;;;;;5067651;28;20033;-83
2021/08/02 12:42:43;;;;;;;6.15;5.63;;;25.30;66.80;;;;;;5067073;28;20041;-82
2021/08/02 12:45:10;;;;;;;5.75;5.20;;;25.40;66.70;;;;;;5068046;28;20029;-79
2021/08/02 12:47:36;;;;;;;6.18;5.57;;;25.40;66.60;;;;;;5067437;28;20028;-81
2021/08/02 12:50:04;;;;;;;7.10;6.40;;;25.40;66.50;;;;;;5067472;28;20036;-80
2021/08/02 12:52:31;;;;;;;6.55;5.93;;;25.40;65.60;;;;;;5056856;28;20071;-79